Merrimac, Massachusetts
Current Conditions -  °F | °C
As of 1:54 PM on Tuesday 27 Jan 2015 (Local Time) from KLWM Reporting Station
Moderate Fog Moderate Fog  
Wind Chill: -1°   Ceiling: 1000
Heat Index: 15°   Visibility: 0.5mi
Dew Point: 11°   Wind: 16mph
Humidity: 84%   Direction: 350°N
Pressure: 29.53"   Gusts: 26mph
Location:  42.83°N, 71°W
Report Text: KLWM 271854Z AUTO 35014G23KT 1/2SM FZFG VV010 M09/M12 A2953 RMK AO2 PK WND 02031/1756 SLP003 T10941117 PWINO FZRANO $
Loading
Personal Weather Stations






























Interactive Weather Map New forecast layout! Learn more

10-Day Weather Forecast

Advertisements
Track Severe Weather on mobile